ADDS TAF Data INFO
IDs: Format: Raw Decoded Include METARs

Data at: 1900 UTC 20 Jan 2018

KROA 201854Z 30016G20KT 10SM SCT250 16/02 A3007 RMK AO2 SLP183 T01560017

KROA 201727Z 2018/2118 28012G23KT P6SM FEW050 SCT250
  FM202300 28007KT P6SM SCT250
  FM210200 29006KT P6SM SCT250 WS020/30035KT
  FM210800 VRB04KT P6SM SCT250
  FM211300 29007KT P6SM BKN100